createdAt,value
2024-03-17T00:02:05.890Z,43.90
2024-03-17T00:04:33.786Z,45.70
2024-03-17T00:07:02.002Z,45.60
2024-03-17T00:09:30.195Z,46.00
2024-03-17T00:11:58.121Z,43.70
2024-03-17T00:14:29.322Z,42.40
2024-03-17T00:16:58.731Z,45.90
2024-03-17T00:19:27.192Z,38.10
2024-03-17T00:21:55.173Z,41.80
2024-03-17T00:24:23.366Z,41.00
2024-03-17T00:26:51.218Z,41.30
2024-03-17T00:29:19.113Z,38.70
2024-03-17T00:31:47.305Z,41.90
2024-03-17T00:34:16.425Z,40.10
2024-03-17T00:36:44.241Z,40.70
2024-03-17T00:39:12.207Z,40.00
2024-03-17T00:41:40.007Z,39.70
2024-03-17T00:44:08.166Z,38.30
2024-03-17T00:46:36.199Z,37.10
2024-03-17T00:49:04.278Z,37.20
2024-03-17T00:51:32.114Z,36.90
2024-03-17T00:54:00.212Z,34.40
2024-03-17T00:56:28.969Z,36.20
2024-03-17T00:58:56.794Z,34.50
2024-03-17T01:01:26.054Z,33.80
2024-03-17T01:03:54.240Z,34.60
2024-03-17T01:06:22.615Z,38.10
2024-03-17T01:08:52.790Z,34.70
2024-03-17T01:11:20.709Z,36.50
2024-03-17T01:13:48.537Z,38.10
2024-03-17T01:16:16.827Z,38.60
2024-03-17T01:18:46.764Z,38.70
2024-03-17T01:21:14.946Z,38.90
2024-03-17T01:23:42.776Z,38.60
2024-03-17T01:26:12.821Z,36.40
2024-03-17T01:28:42.215Z,37.90
2024-03-17T01:31:10.601Z,41.40
2024-03-17T01:33:38.574Z,39.90
2024-03-17T01:36:07.315Z,36.60
2024-03-17T01:38:35.923Z,37.20
2024-03-17T01:41:05.571Z,37.80
2024-03-17T01:43:33.542Z,36.50
2024-03-17T01:46:03.340Z,36.80
2024-03-17T01:48:31.196Z,31.10
2024-03-17T01:50:59.306Z,35.60
2024-03-17T01:53:28.269Z,35.50
2024-03-17T01:55:59.846Z,36.70
2024-03-17T01:58:31.105Z,37.70
2024-03-17T02:00:59.718Z,33.80
2024-03-17T02:03:27.734Z,36.90
2024-03-17T02:05:55.623Z,32.30
2024-03-17T02:08:23.529Z,31.00
2024-03-17T02:10:57.442Z,33.20
2024-03-17T02:13:25.399Z,33.30
2024-03-17T02:15:53.394Z,37.00
2024-03-17T02:18:21.187Z,32.00
2024-03-17T02:21:00.245Z,34.70
2024-03-17T02:23:36.533Z,32.80
2024-03-17T02:26:07.103Z,33.00
2024-03-17T02:28:45.522Z,35.80
2024-03-17T02:31:16.619Z,39.30
2024-03-17T02:33:45.614Z,34.80
2024-03-17T02:36:14.157Z,31.90
2024-03-17T02:39:00.905Z,35.00
2024-03-17T02:41:29.636Z,32.00
2024-03-17T02:43:57.704Z,29.00
2024-03-17T02:46:25.863Z,34.80
2024-03-17T02:48:54.727Z,35.10
2024-03-17T02:51:23.665Z,33.80
2024-03-17T02:53:52.045Z,38.30
2024-03-17T02:56:20.308Z,35.90
2024-03-17T02:58:50.081Z,35.50
2024-03-17T03:01:18.389Z,33.50
2024-03-17T03:03:46.437Z,32.60
2024-03-17T03:06:19.055Z,37.00
2024-03-17T03:08:49.483Z,33.40
2024-03-17T03:11:18.415Z,32.00
2024-03-17T03:13:46.562Z,30.50
2024-03-17T03:16:15.546Z,30.90
2024-03-17T03:18:45.455Z,30.10
2024-03-17T03:21:13.959Z,30.70
2024-03-17T03:23:42.488Z,29.80
2024-03-17T03:26:10.780Z,33.80
2024-03-17T03:28:39.503Z,36.30
2024-03-17T03:31:08.094Z,35.60
2024-03-17T03:33:35.884Z,35.70
2024-03-17T03:36:12.234Z,30.80
2024-03-17T03:41:09.762Z,34.00
2024-03-17T03:43:37.999Z,34.60
2024-03-17T03:46:06.954Z,34.20
2024-03-17T03:48:35.832Z,31.10
2024-03-17T03:51:08.287Z,34.00
2024-03-17T03:53:37.370Z,32.80
2024-03-17T03:56:11.210Z,37.80
2024-03-17T03:58:41.534Z,31.70
2024-03-17T04:01:12.577Z,36.40
2024-03-17T04:03:40.506Z,34.30
2024-03-17T04:06:11.700Z,33.50
2024-03-17T04:08:41.197Z,31.20
2024-03-17T04:11:10.399Z,30.10
2024-03-17T04:13:38.392Z,31.40
2024-03-17T04:16:07.648Z,29.60
2024-03-17T04:18:35.920Z,26.30
2024-03-17T04:21:08.067Z,26.90
2024-03-17T04:23:36.199Z,27.10
2024-03-17T04:26:05.601Z,28.60
2024-03-17T04:28:33.466Z,25.70
2024-03-17T04:31:07.567Z,24.80
2024-03-17T04:33:35.715Z,25.70
2024-03-17T04:36:04.388Z,25.00
2024-03-17T04:38:32.385Z,26.10
2024-03-17T04:41:06.058Z,27.10
2024-03-17T04:43:33.998Z,30.90
2024-03-17T04:46:05.084Z,26.40
2024-03-17T04:48:33.702Z,26.30
2024-03-17T04:51:02.141Z,30.00
2024-03-17T04:53:30.452Z,31.90
2024-03-17T04:56:06.556Z,27.90
2024-03-17T04:58:35.494Z,26.00
2024-03-17T05:01:09.974Z,25.50
2024-03-17T05:03:37.902Z,26.30
2024-03-17T05:06:06.775Z,26.70
2024-03-17T05:08:36.002Z,27.40
2024-03-17T05:11:08.439Z,31.80
2024-03-17T05:13:39.556Z,27.10
2024-03-17T05:16:08.001Z,33.10
2024-03-17T05:18:36.524Z,28.30
2024-03-17T05:21:05.732Z,28.70
2024-03-17T05:23:34.969Z,24.50
2024-03-17T05:26:03.046Z,24.00
2024-03-17T05:28:31.592Z,25.50
2024-03-17T05:31:00.250Z,25.00
2024-03-17T05:33:28.081Z,28.50
2024-03-17T05:35:59.135Z,24.40
2024-03-17T05:38:28.688Z,28.50
2024-03-17T05:41:07.659Z,27.70
2024-03-17T05:43:37.075Z,25.70
2024-03-17T05:46:09.646Z,26.00
2024-03-17T05:48:40.075Z,25.30
2024-03-17T05:51:09.209Z,26.40
2024-03-17T05:53:39.701Z,22.20
2024-03-17T05:56:12.518Z,23.10
2024-03-17T05:58:40.724Z,25.70
2024-03-17T06:01:08.592Z,25.90
2024-03-17T06:03:37.309Z,29.30
2024-03-17T06:06:12.694Z,28.50
2024-03-17T06:08:40.567Z,30.00
2024-03-17T06:11:09.272Z,29.30
2024-03-17T06:13:37.935Z,31.90
2024-03-17T06:16:06.338Z,26.50
2024-03-17T06:18:34.192Z,28.30
2024-03-17T06:21:02.048Z,27.40
2024-03-17T06:23:30.166Z,25.80
2024-03-17T06:25:58.159Z,21.10
2024-03-17T06:28:27.340Z,23.30
2024-03-17T06:31:05.725Z,23.50
2024-03-17T06:33:33.922Z,24.50
2024-03-17T06:36:06.758Z,26.10
2024-03-17T06:38:35.069Z,22.30
2024-03-17T06:41:02.931Z,22.50
2024-03-17T06:43:31.206Z,20.80
2024-03-17T06:46:00.641Z,22.30
2024-03-17T06:48:29.910Z,20.90
2024-03-17T06:50:58.367Z,23.70
2024-03-17T06:53:29.650Z,21.90
2024-03-17T06:55:59.403Z,36.10
2024-03-17T06:58:30.330Z,38.30
2024-03-17T07:01:02.794Z,35.50
2024-03-17T07:03:32.827Z,32.10
2024-03-17T07:06:04.333Z,26.20
2024-03-17T07:08:32.947Z,28.60
2024-03-17T07:11:08.177Z,30.10
2024-03-17T07:13:37.859Z,26.60
2024-03-17T07:16:07.450Z,23.10
2024-03-17T07:18:36.273Z,24.90
2024-03-17T07:21:05.830Z,25.30
2024-03-17T07:23:34.036Z,25.90
2024-03-17T07:26:03.878Z,26.00
2024-03-17T07:28:32.819Z,28.50
2024-03-17T07:31:03.795Z,24.50
2024-03-17T07:33:31.726Z,24.70
2024-03-17T07:36:03.564Z,25.10
2024-03-17T07:38:31.995Z,23.10
2024-03-17T07:41:05.847Z,26.40
2024-03-17T07:43:36.965Z,27.90
2024-03-17T07:46:09.234Z,30.30
2024-03-17T07:48:38.333Z,24.90
2024-03-17T07:51:07.422Z,27.10
2024-03-17T07:53:42.236Z,27.10
2024-03-17T07:56:11.566Z,26.30
2024-03-17T07:58:44.667Z,25.30
2024-03-17T08:01:14.316Z,27.50
2024-03-17T08:03:45.755Z,24.90
2024-03-17T08:06:13.590Z,24.80
2024-03-17T08:08:41.953Z,24.70
2024-03-17T08:11:09.828Z,28.10
2024-03-17T08:13:38.260Z,31.20
2024-03-17T08:16:11.385Z,30.10
2024-03-17T08:18:39.353Z,26.10
2024-03-17T08:21:07.491Z,23.00
2024-03-17T08:23:42.767Z,25.40
2024-03-17T08:26:10.695Z,24.10
2024-03-17T08:28:38.531Z,27.80
2024-03-17T08:31:06.703Z,23.50
2024-03-17T08:33:34.813Z,21.90
2024-03-17T08:36:08.357Z,25.10
2024-03-17T08:38:37.619Z,19.10
2024-03-17T08:41:06.871Z,22.30
2024-03-17T08:43:35.871Z,21.70
2024-03-17T08:46:09.037Z,23.20
2024-03-17T08:48:38.953Z,23.70
2024-03-17T08:51:09.110Z,20.60
2024-03-17T08:53:39.723Z,22.50
2024-03-17T08:56:07.590Z,22.40
2024-03-17T08:58:35.640Z,21.30
2024-03-17T09:01:09.779Z,24.10
2024-03-17T09:03:37.763Z,20.70
2024-03-17T09:06:16.779Z,19.30
2024-03-17T09:08:44.746Z,21.50
2024-03-17T09:11:14.832Z,23.60
2024-03-17T09:13:42.792Z,20.60
2024-03-17T09:16:12.260Z,20.80
2024-03-17T09:18:42.486Z,21.30
2024-03-17T09:21:14.505Z,21.10
2024-03-17T09:23:42.376Z,21.80
2024-03-17T09:26:18.616Z,19.50
2024-03-17T09:28:47.225Z,18.40
2024-03-17T09:31:15.096Z,20.20
2024-03-17T09:33:43.145Z,21.90
2024-03-17T09:36:15.156Z,23.70
2024-03-17T09:38:45.007Z,21.90
2024-03-17T09:41:26.016Z,18.00
2024-03-17T09:43:58.749Z,20.20
2024-03-17T09:46:30.017Z,18.30
2024-03-17T09:48:58.612Z,17.90
2024-03-17T09:51:27.015Z,21.20
2024-03-17T09:53:54.973Z,16.50
2024-03-17T09:56:23.186Z,19.00
2024-03-17T09:58:52.962Z,18.60
2024-03-17T10:01:20.957Z,17.70
2024-03-17T10:03:55.626Z,25.20
2024-03-17T10:06:25.269Z,23.10
2024-03-17T10:08:55.835Z,23.90
2024-03-17T10:11:26.232Z,22.80
2024-03-17T10:14:02.783Z,20.50
2024-03-17T10:16:32.538Z,23.10
2024-03-17T10:19:11.444Z,23.50
2024-03-17T10:21:49.226Z,20.80
2024-03-17T10:24:29.561Z,22.40
2024-03-17T10:26:59.592Z,23.40
2024-03-17T10:29:28.881Z,25.80
2024-03-17T10:31:58.803Z,22.30
2024-03-17T10:34:30.359Z,26.40
2024-03-17T10:37:23.270Z,28.20
2024-03-17T10:39:55.559Z,22.60
2024-03-17T10:42:29.437Z,22.20
2024-03-17T10:44:58.856Z,22.60
2024-03-17T10:47:28.326Z,20.10
2024-03-17T10:49:57.286Z,26.50
2024-03-17T10:52:34.751Z,20.30
2024-03-17T10:55:10.327Z,23.80
2024-03-17T10:57:49.936Z,22.90
2024-03-17T11:00:20.188Z,20.80
2024-03-17T11:02:48.598Z,23.80
2024-03-17T11:05:24.180Z,22.90
2024-03-17T11:07:57.010Z,21.60
2024-03-17T11:10:30.884Z,20.10
2024-03-17T11:13:00.919Z,21.70
2024-03-17T11:15:44.288Z,25.90
2024-03-17T11:18:13.458Z,20.50
2024-03-17T11:20:43.242Z,22.90
2024-03-17T11:23:28.348Z,25.40
2024-03-17T11:25:57.604Z,18.60
2024-03-17T11:28:46.526Z,21.60
2024-03-17T11:31:38.239Z,21.80
2024-03-17T11:34:08.791Z,19.60
2024-03-17T11:36:39.437Z,19.50
2024-03-17T11:39:28.715Z,27.10
2024-03-17T11:41:56.755Z,20.70
2024-03-17T11:44:26.969Z,24.80
2024-03-17T11:47:09.350Z,18.10
2024-03-17T11:49:44.499Z,23.20
2024-03-17T11:52:14.451Z,20.00
2024-03-17T11:54:49.701Z,17.10
2024-03-17T11:57:25.576Z,18.80
2024-03-17T11:59:55.526Z,17.70
2024-03-17T12:02:25.979Z,17.80
2024-03-17T12:05:02.238Z,17.60
2024-03-17T12:09:59.649Z,27.90
2024-03-17T12:12:37.698Z,17.30
2024-03-17T12:15:18.046Z,18.50
2024-03-17T12:17:46.215Z,17.30
2024-03-17T12:20:21.850Z,16.40
2024-03-17T12:22:51.926Z,16.30
2024-03-17T12:25:22.229Z,16.00
2024-03-17T12:27:50.987Z,14.30
2024-03-17T12:30:19.780Z,13.60
2024-03-17T12:32:48.700Z,19.00
2024-03-17T12:35:18.753Z,15.70
2024-03-17T12:37:47.316Z,15.90
2024-03-17T12:40:24.370Z,16.90
2024-03-17T12:42:52.900Z,16.60
2024-03-17T12:45:22.662Z,14.10
2024-03-17T12:47:52.290Z,13.10
2024-03-17T12:50:20.583Z,15.90
2024-03-17T12:52:56.494Z,13.60
2024-03-17T12:55:43.371Z,15.30
2024-03-17T12:58:31.001Z,16.40
2024-03-17T13:01:05.858Z,23.60
2024-03-17T13:03:35.418Z,16.10
2024-03-17T13:06:07.384Z,13.30
2024-03-17T13:08:36.372Z,15.40
2024-03-17T13:11:10.516Z,15.70
2024-03-17T13:13:40.979Z,17.90
2024-03-17T13:16:13.825Z,14.50
2024-03-17T13:18:41.665Z,15.40
2024-03-17T13:21:09.765Z,14.50
2024-03-17T13:23:37.623Z,17.10
2024-03-17T13:26:05.487Z,17.00
2024-03-17T13:28:33.281Z,26.40
2024-03-17T13:31:02.241Z,21.40
2024-03-17T13:33:30.368Z,25.10
2024-03-17T13:35:58.363Z,27.80
2024-03-17T13:38:26.183Z,27.40
2024-03-17T13:40:54.212Z,23.50
2024-03-17T13:43:22.121Z,28.50
2024-03-17T13:45:50.971Z,26.70
2024-03-17T13:48:19.455Z,26.30
2024-03-17T13:50:48.409Z,25.70
2024-03-17T13:53:16.268Z,26.90
2024-03-17T13:55:44.282Z,25.80
2024-03-17T13:58:13.373Z,28.00
2024-03-17T14:00:43.679Z,31.90
2024-03-17T14:03:11.601Z,31.40
2024-03-17T14:05:40.054Z,29.10
2024-03-17T14:08:08.227Z,29.50
2024-03-17T14:10:36.699Z,28.50
2024-03-17T14:13:05.583Z,30.40
2024-03-17T14:15:34.728Z,26.20
2024-03-17T14:18:06.318Z,31.10
2024-03-17T14:20:34.719Z,28.50
2024-03-17T14:23:04.549Z,29.30
2024-03-17T14:25:32.410Z,32.80
2024-03-17T14:28:00.419Z,31.70
2024-03-17T14:30:28.837Z,28.30
2024-03-17T14:32:56.857Z,24.30
2024-03-17T14:35:24.897Z,23.00
2024-03-17T14:37:53.516Z,25.40
2024-03-17T14:40:23.564Z,26.30
2024-03-17T14:42:52.726Z,24.50
2024-03-17T14:45:21.766Z,25.30
2024-03-17T14:47:49.693Z,25.00
2024-03-17T14:50:17.650Z,28.20
2024-03-17T14:52:46.303Z,25.10
2024-03-17T14:55:14.411Z,25.70
2024-03-17T14:57:42.515Z,26.10
2024-03-17T15:00:19.513Z,25.40
2024-03-17T15:02:49.245Z,27.80
2024-03-17T15:05:21.013Z,28.00
2024-03-17T15:07:52.236Z,25.90
2024-03-17T15:10:21.500Z,24.90
2024-03-17T15:12:49.504Z,23.90
2024-03-17T15:15:18.529Z,21.50
2024-03-17T15:17:46.393Z,20.70
2024-03-17T15:20:22.301Z,25.30
2024-03-17T15:22:50.711Z,20.20
2024-03-17T15:25:20.924Z,18.90
2024-03-17T15:27:49.207Z,20.50
2024-03-17T15:30:19.647Z,22.30
2024-03-17T15:32:48.135Z,22.50
2024-03-17T15:35:17.442Z,22.40
2024-03-17T15:37:45.842Z,26.10
2024-03-17T15:40:19.848Z,21.20
2024-03-17T15:42:49.861Z,21.90
2024-03-17T15:45:24.570Z,21.40
2024-03-17T15:47:52.422Z,21.00
2024-03-17T15:50:20.544Z,18.00
2024-03-17T15:52:49.426Z,15.50
2024-03-17T15:55:18.276Z,12.90
2024-03-17T15:57:47.584Z,12.10
2024-03-17T16:00:17.025Z,10.40
2024-03-17T16:02:49.098Z,8.50
2024-03-17T16:05:20.408Z,10.10
2024-03-17T16:07:48.584Z,8.60
2024-03-17T16:12:50.023Z,10.60
2024-03-17T16:15:18.350Z,10.50
2024-03-17T16:17:46.506Z,10.50
2024-03-17T16:20:44.865Z,10.20
2024-03-17T16:23:12.829Z,13.70
2024-03-17T16:25:42.351Z,16.00
2024-03-17T16:28:14.584Z,10.60
2024-03-17T16:30:43.723Z,9.20
2024-03-17T16:33:13.671Z,12.40
2024-03-17T16:35:46.110Z,10.40
2024-03-17T16:38:14.698Z,12.40
2024-03-17T16:40:43.515Z,14.30
2024-03-17T16:43:19.554Z,13.30
2024-03-17T16:46:01.008Z,16.70
2024-03-17T16:48:29.101Z,18.60
2024-03-17T16:50:57.894Z,19.30
2024-03-17T16:53:25.863Z,18.20
2024-03-17T16:55:53.799Z,19.80
2024-03-17T16:58:21.657Z,18.40
2024-03-17T17:00:49.430Z,18.80
2024-03-17T17:03:17.306Z,17.70
2024-03-17T17:05:45.158Z,17.10
2024-03-17T17:08:13.224Z,18.90
2024-03-17T17:10:41.069Z,16.50
2024-03-17T17:13:09.684Z,19.90
2024-03-17T17:15:37.782Z,23.60
2024-03-17T17:18:08.317Z,18.40
2024-03-17T17:20:36.393Z,20.40
2024-03-17T17:23:04.799Z,19.20
2024-03-17T17:25:32.699Z,24.90
2024-03-17T17:28:00.716Z,22.10
2024-03-17T17:30:30.136Z,19.40
2024-03-17T17:32:58.186Z,19.60
2024-03-17T17:35:26.033Z,18.30
2024-03-17T17:37:54.090Z,15.70
2024-03-17T17:40:21.907Z,18.30
2024-03-17T17:42:49.721Z,16.90
2024-03-17T17:45:17.597Z,19.40
2024-03-17T17:47:45.593Z,15.80
2024-03-17T17:50:13.391Z,13.80
2024-03-17T17:52:41.638Z,14.40
2024-03-17T17:55:10.506Z,15.40
2024-03-17T17:57:38.665Z,14.40
2024-03-17T18:00:11.738Z,11.90
2024-03-17T18:02:39.659Z,12.40
2024-03-17T18:05:08.156Z,12.30
2024-03-17T18:07:36.025Z,14.30
2024-03-17T18:10:04.399Z,12.40
2024-03-17T18:12:32.221Z,16.10
2024-03-17T18:15:01.541Z,8.80
2024-03-17T18:17:29.389Z,11.10
2024-03-17T18:19:57.401Z,13.00
2024-03-17T18:22:25.426Z,12.90
2024-03-17T18:24:53.373Z,13.60
2024-03-17T18:27:21.241Z,8.60
2024-03-17T18:29:50.534Z,7.60
2024-03-17T18:32:18.466Z,6.40
2024-03-17T18:34:47.009Z,8.20
2024-03-17T18:37:15.421Z,13.30
2024-03-17T18:39:46.382Z,12.80
2024-03-17T18:42:14.342Z,17.20
2024-03-17T18:44:42.220Z,9.70
2024-03-17T18:47:10.078Z,8.10
2024-03-17T18:49:38.608Z,7.00
2024-03-17T18:52:06.613Z,9.70
2024-03-17T18:54:34.434Z,9.50
2024-03-17T18:57:03.077Z,11.60
2024-03-17T18:59:33.395Z,15.00
2024-03-17T19:02:01.351Z,17.90
2024-03-17T19:04:29.230Z,19.00
2024-03-17T19:06:57.047Z,20.70
2024-03-17T19:09:27.108Z,23.20
2024-03-17T19:11:56.179Z,21.30
2024-03-17T19:14:24.288Z,24.50
2024-03-17T19:16:53.600Z,23.30
2024-03-17T19:19:23.004Z,21.30
2024-03-17T19:21:55.148Z,20.20
2024-03-17T19:24:22.958Z,15.20
2024-03-17T19:26:51.841Z,14.10
2024-03-17T19:29:19.883Z,15.50
2024-03-17T19:31:48.884Z,12.20
2024-03-17T19:34:17.021Z,10.90
2024-03-17T19:36:47.318Z,10.00
2024-03-17T19:39:17.698Z,8.40
2024-03-17T19:41:46.297Z,10.20
2024-03-17T19:44:17.237Z,9.40
2024-03-17T19:46:45.136Z,9.00
2024-03-17T19:49:12.965Z,11.10
2024-03-17T19:51:41.151Z,10.90
2024-03-17T19:54:09.057Z,18.60
2024-03-17T19:56:37.561Z,17.20
2024-03-17T19:59:06.477Z,15.50
2024-03-17T20:01:34.581Z,11.50
2024-03-17T20:04:02.667Z,17.70
2024-03-17T20:06:30.831Z,13.30
2024-03-17T20:08:58.871Z,13.00
2024-03-17T20:11:27.763Z,11.50
2024-03-17T20:13:55.767Z,12.90
2024-03-17T20:16:28.462Z,10.80
2024-03-17T20:18:57.610Z,13.10
2024-03-17T20:21:25.866Z,12.50
2024-03-17T20:23:54.840Z,14.10
2024-03-17T20:26:30.615Z,12.80
2024-03-17T20:28:59.030Z,11.30
2024-03-17T20:31:27.289Z,10.80
2024-03-17T20:33:55.217Z,12.40
2024-03-17T20:36:26.389Z,10.00
2024-03-17T20:38:58.250Z,8.70
2024-03-17T20:41:27.128Z,12.30
2024-03-17T20:43:56.241Z,10.70
2024-03-17T20:46:25.133Z,9.20
2024-03-17T20:48:53.726Z,8.80
2024-03-17T20:51:22.601Z,10.10
2024-03-17T20:53:51.475Z,12.50
2024-03-17T20:56:19.307Z,9.60
2024-03-17T20:58:48.838Z,9.40
2024-03-17T21:01:16.754Z,11.20
2024-03-17T21:03:46.714Z,9.80
2024-03-17T21:06:17.633Z,8.90
2024-03-17T21:08:45.572Z,10.50
2024-03-17T21:11:13.652Z,11.20
2024-03-17T21:13:41.567Z,10.90
2024-03-17T21:16:10.408Z,12.10
2024-03-17T21:18:38.416Z,20.40
2024-03-17T21:21:06.766Z,22.90
2024-03-17T21:23:34.918Z,17.50
2024-03-17T21:26:04.362Z,13.80
2024-03-17T21:28:32.922Z,12.60
2024-03-17T21:31:04.037Z,12.50
2024-03-17T21:33:32.736Z,13.00
2024-03-17T21:36:04.362Z,12.20
2024-03-17T21:38:32.305Z,11.60
2024-03-17T21:41:00.105Z,15.40
2024-03-17T21:46:00.975Z,11.80
2024-03-17T21:48:28.852Z,11.50
2024-03-17T21:50:57.035Z,12.60
2024-03-17T21:53:24.913Z,13.40
2024-03-17T21:56:00.280Z,13.80
2024-03-17T21:58:28.533Z,14.40
2024-03-17T22:00:56.542Z,13.20
2024-03-17T22:03:24.454Z,13.10
2024-03-17T22:05:54.161Z,14.40
2024-03-17T22:08:22.638Z,14.10
2024-03-17T22:10:57.261Z,13.20
2024-03-17T22:13:33.790Z,10.70
2024-03-17T22:16:03.036Z,11.00
2024-03-17T22:18:31.348Z,11.40
2024-03-17T22:21:00.627Z,11.30
2024-03-17T22:23:28.530Z,12.90
2024-03-17T22:26:03.956Z,9.40
2024-03-17T22:28:32.650Z,11.60
2024-03-17T22:31:02.746Z,11.60
2024-03-17T22:33:31.919Z,7.20
2024-03-17T22:36:06.078Z,7.50
2024-03-17T22:38:39.013Z,6.90
2024-03-17T22:41:08.909Z,7.10
2024-03-17T22:43:41.940Z,7.90
2024-03-17T22:46:15.058Z,7.50
2024-03-17T22:48:43.606Z,6.50
2024-03-17T22:51:13.927Z,7.50
2024-03-17T22:53:44.659Z,9.10
2024-03-17T22:56:12.937Z,7.90
2024-03-17T22:58:47.125Z,6.90
2024-03-17T23:01:16.180Z,8.00
2024-03-17T23:03:44.066Z,9.20
2024-03-17T23:06:12.211Z,6.00
2024-03-17T23:08:40.334Z,7.20
2024-03-17T23:11:09.527Z,6.90
2024-03-17T23:13:38.559Z,8.00
2024-03-17T23:16:06.555Z,8.10
2024-03-17T23:18:36.865Z,7.20
2024-03-17T23:21:05.863Z,6.30
2024-03-17T23:23:33.675Z,7.50
2024-03-17T23:26:01.675Z,6.40
2024-03-17T23:28:29.472Z,7.50
2024-03-17T23:30:57.311Z,6.00
2024-03-17T23:33:25.283Z,5.00
2024-03-17T23:35:54.465Z,6.30
2024-03-17T23:38:22.634Z,5.70
2024-03-17T23:40:50.725Z,6.80
2024-03-17T23:43:19.588Z,6.40
2024-03-17T23:45:47.977Z,5.10
2024-03-17T23:48:16.045Z,8.50
2024-03-17T23:50:44.621Z,5.40
2024-03-17T23:53:12.495Z,6.80
2024-03-17T23:55:40.411Z,6.20
2024-03-17T23:58:08.825Z,6.90
